createdAt,value
2022-07-30T00:03:36.869Z,56.3
2022-07-30T00:18:46.509Z,56.9
2022-07-30T00:33:55.596Z,57.4
2022-07-30T00:49:05.213Z,58
2022-07-30T01:04:14.457Z,58.3
2022-07-30T01:19:23.886Z,58.6
2022-07-30T01:34:32.624Z,58.9
2022-07-30T01:49:44.197Z,59.3
2022-07-30T02:04:54.218Z,59.7
2022-07-30T02:20:10.516Z,59.9
2022-07-30T02:35:19.874Z,60.2
2022-07-30T02:50:29.059Z,60.4
2022-07-30T03:05:38.259Z,60.8
2022-07-30T03:20:47.602Z,61.1
2022-07-30T03:35:56.977Z,61.4
2022-07-30T03:51:06.003Z,61.7
2022-07-30T04:07:47.999Z,67.8
2022-07-30T04:22:58.330Z,66.2
2022-07-30T04:38:07.865Z,65.5
2022-07-30T04:53:17.813Z,65.2
2022-07-30T05:08:27.725Z,65.1
2022-07-30T05:23:36.561Z,65.2
2022-07-30T05:38:46.012Z,65.4
2022-07-30T05:53:55.142Z,65.4
2022-07-30T06:09:04.498Z,65.9
2022-07-30T06:24:13.457Z,65.8
2022-07-30T06:39:59.054Z,65.8
2022-07-30T06:55:08.230Z,66.1
2022-07-30T07:10:18.174Z,65.3
2022-07-30T07:25:28.158Z,64.8
2022-07-30T07:40:37.626Z,64.6
2022-07-30T07:55:48.113Z,64.6
2022-07-30T08:10:57.758Z,64.6
2022-07-30T08:26:08.268Z,64.5
2022-07-30T08:41:18.123Z,64.2
2022-07-30T08:56:31.592Z,64.1
2022-07-30T09:11:42.123Z,64
2022-07-30T09:26:51.621Z,63.8
2022-07-30T09:42:04.309Z,63.2
2022-07-30T09:57:28.886Z,62.7
2022-07-30T10:12:39.418Z,62.2
2022-07-30T10:27:49.193Z,62
2022-07-30T10:42:58.697Z,61.6
2022-07-30T10:58:08.072Z,61.5
2022-07-30T11:13:27.236Z,61.3
2022-07-30T11:28:37.949Z,60.3
2022-07-30T11:43:47.646Z,60.1
2022-07-30T11:58:56.738Z,60
2022-07-30T12:14:08.038Z,58.8
2022-07-30T12:29:20.621Z,53.4
2022-07-30T12:44:30.323Z,54.6
2022-07-30T12:59:40.392Z,53.9
2022-07-30T13:14:50.180Z,53.3
2022-07-30T13:30:00.414Z,52.6
2022-07-30T13:45:10.093Z,51.7
2022-07-30T14:00:19.927Z,53.1
2022-07-30T14:15:28.575Z,54.7
2022-07-30T14:30:37.564Z,55.5
2022-07-30T14:45:49.297Z,55.2
2022-07-30T15:01:17.621Z,55.2
2022-07-30T15:16:27.570Z,55.1
2022-07-30T15:31:38.723Z,51.8
2022-07-30T15:46:49.301Z,50.3
2022-07-30T16:01:58.475Z,51.1
2022-07-30T16:17:14.463Z,52.2
2022-07-30T16:32:23.666Z,53.4
2022-07-30T16:47:34.957Z,53.4
2022-07-30T17:02:44.749Z,53.9
2022-07-30T17:17:54.133Z,54.3
2022-07-30T17:33:03.278Z,54.5
2022-07-30T17:48:12.537Z,54.5
2022-07-30T18:03:21.734Z,54.5
2022-07-30T18:18:30.896Z,54.7
2022-07-30T18:33:39.926Z,55
2022-07-30T18:48:49.335Z,55.2
2022-07-30T19:03:58.096Z,59.1
2022-07-30T19:19:07.156Z,60.5
2022-07-30T19:34:16.090Z,61
2022-07-30T19:49:30.372Z,61.2
2022-07-30T20:04:46.104Z,61.6
2022-07-30T20:19:59.736Z,61.9
2022-07-30T20:35:08.475Z,62.2
2022-07-30T20:50:31.775Z,62.6
2022-07-30T21:05:40.490Z,62.6
2022-07-30T21:20:49.759Z,62.7
2022-07-30T21:35:58.901Z,62.9
2022-07-30T21:51:10.898Z,63
2022-07-30T22:06:24.409Z,63.3
2022-07-30T22:21:34.378Z,63.6
2022-07-30T22:36:46.109Z,64
2022-07-30T22:52:29.884Z,64.1
2022-07-30T23:07:41.304Z,64.6
2022-07-30T23:22:50.345Z,64.8
2022-07-30T23:37:59.925Z,65.1
2022-07-30T23:53:09.335Z,65.1
